Time;durP1;ratioP1;P1;durP2;ratioP2;P2;SDS_P1;SDS_P2;PMS_P1;PMS_P2;Temp;Humidity;BMP_temperature;BMP_pressure;BME280_temperature;BME280_humidity;BME280_pressure;Samples;Min_cycle;Max_cycle;Signal;HPM_P1;HPM_P2
2023/09/04 00:00:10;;;;;;;5.15;4.53;;;;;;;;;;5033246;28;20044;-82
2023/09/04 00:02:36;;;;;;;5.82;4.22;;;;;;;;;;5032344;28;20049;-82
2023/09/04 00:05:02;;;;;;;5.60;4.68;;;;;;;;;;5014492;28;20039;-82
2023/09/04 00:07:28;;;;;;;6.50;4.57;;;;;;;;;;5019712;28;20113;-85
2023/09/04 00:09:54;;;;;;;9.32;5.03;;;;;;;;;;5008344;28;20067;-86
2023/09/04 00:12:20;;;;;;;6.10;4.65;;;;;;;;;;5020585;28;20029;-83
2023/09/04 00:14:46;;;;;;;6.38;4.65;;;;;;;;;;5005889;28;20576;-85
2023/09/04 00:17:12;;;;;;;7.18;4.60;;;;;;;;;;5022503;28;20112;-82
2023/09/04 00:19:38;;;;;;;6.43;4.97;;;;;;;;;;5022640;28;20453;-83
2023/09/04 00:22:04;;;;;;;7.18;4.38;;;;;;;;;;4996267;28;20037;-83
2023/09/04 00:24:30;;;;;;;6.72;4.60;;;;;;;;;;5021717;28;20036;-82
2023/09/04 00:26:56;;;;;;;5.97;4.55;;;;;;;;;;5024357;28;20410;-83
2023/09/04 00:29:22;;;;;;;8.52;5.18;;;;;;;;;;4998623;28;20033;-81
2023/09/04 00:31:48;;;;;;;7.68;4.53;;;;;;;;;;5025561;28;20037;-82
2023/09/04 00:34:14;;;;;;;5.93;4.45;;;;;;;;;;5006687;28;20029;-80
2023/09/04 00:36:40;;;;;;;6.75;4.60;;;;;;;;;;5026194;28;20024;-81
2023/09/04 00:39:06;;;;;;;8.32;5.07;;;17.60;99.90;;;;;;5025049;28;20030;-82
2023/09/04 00:41:32;;;;;;;6.50;4.75;;;;;;;;;;5019918;28;20498;-82
2023/09/04 00:43:58;;;;;;;6.72;4.05;;;;;;;;;;5024576;28;20213;-86
2023/09/04 00:46:24;;;;;;;6.07;4.55;;;;;;;;;;5010366;28;20026;-82
2023/09/04 00:48:50;;;;;;;6.03;4.05;;;;;;;;;;5001561;28;20495;-85
2023/09/04 00:51:16;;;;;;;5.55;3.97;;;;;;;;;;5026171;28;20025;-82
2023/09/04 00:53:42;;;;;;;7.22;4.25;;;;;;;;;;5026656;28;20061;-82
2023/09/04 00:56:11;;;;;;;7.22;4.78;;;;;;;;;;5011806;28;20025;-81
2023/09/04 00:58:37;;;;;;;6.80;4.72;;;;;;;;;;5006827;28;20475;-83
2023/09/04 01:01:03;;;;;;;7.60;4.15;;;;;;;;;;4998074;28;20052;-83
2023/09/04 01:03:30;;;;;;;7.90;4.57;;;;;;;;;;5002099;28;20083;-86
2023/09/04 01:05:56;;;;;;;6.28;4.40;;;;;;;;;;5004195;28;20052;-82
2023/09/04 01:08:22;;;;;;;6.35;4.53;;;;;;;;;;5009744;28;20467;-82
2023/09/04 01:11:15;;;;;;;6.25;4.20;;;17.90;99.90;;;;;;5024580;28;20036;-84
2023/09/04 01:13:52;;;;;;;5.90;4.28;;;18.00;99.90;;;;;;5023501;28;20017;-82
2023/09/04 01:16:21;;;;;;;6.07;4.63;;;18.00;99.90;;;;;;5028227;28;20025;-84
2023/09/04 01:18:47;;;;;;;6.32;4.50;;;18.00;99.90;;;;;;5010426;28;21360;-82
2023/09/04 01:21:13;;;;;;;9.45;4.15;;;;;;;;;;5008551;28;20269;-84
2023/09/04 01:23:39;;;;;;;7.55;4.50;;;;;;;;;;5012645;28;20455;-81
2023/09/04 01:26:14;;;;;;;7.75;4.30;;;17.90;99.90;;;;;;5000284;28;20033;-82
2023/09/04 01:28:46;;;;;;;6.43;4.35;;;17.80;99.90;;;;;;5015456;28;20030;-83
2023/09/04 01:31:22;;;;;;;7.78;5.10;;;17.90;99.90;;;;;;5009408;28;20022;-85
2023/09/04 01:33:55;;;;;;;5.55;4.30;;;17.80;99.90;;;;;;5019686;28;20029;-83
2023/09/04 01:36:25;;;;;;;6.20;4.30;;;17.80;99.90;;;;;;5018986;28;20021;-82
2023/09/04 01:38:51;;;;;;;7.15;4.18;;;17.70;99.90;;;;;;5020151;28;20480;-81
2023/09/04 01:41:17;;;;;;;5.93;4.45;;;;;;;;;;5010100;28;20036;-82
2023/09/04 01:43:43;;;;;;;6.15;4.57;;;;;;;;;;5023961;28;20056;-82
2023/09/04 01:46:09;;;;;;;7.63;4.75;;;17.70;99.90;;;;;;5027896;28;20049;-82
2023/09/04 01:48:35;;;;;;;6.03;4.32;;;;;;;;;;5004079;28;20037;-81
2023/09/04 01:51:01;;;;;;;6.68;4.50;;;;;;;;;;5009870;28;20029;-82
2023/09/04 01:53:27;;;;;;;7.85;4.38;;;;;;;;;;5028180;28;20446;-81
2023/09/04 01:55:53;;;;;;;5.93;4.45;;;;;;;;;;5001711;28;20060;-81
2023/09/04 01:58:19;;;;;;;8.63;4.40;;;;;;;;;;4995129;28;20133;-81
2023/09/04 02:00:47;;;;;;;7.95;4.72;;;17.60;99.90;;;;;;5007003;28;20036;-81
2023/09/04 02:03:13;;;;;;;7.10;4.32;;;;;;;;;;5008243;28;20026;-81
2023/09/04 02:05:39;;;;;;;6.82;4.43;;;;;;;;;;5027022;28;20099;-81
2023/09/04 02:08:07;;;;;;;5.88;4.45;;;;;;;;;;5025786;28;20458;-82
2023/09/04 02:10:34;;;;;;;5.53;4.57;;;17.50;99.90;;;;;;5012886;28;20026;-81
2023/09/04 02:13:00;;;;;;;6.43;4.50;;;;;;;;;;5012641;28;20041;-83
2023/09/04 02:15:26;;;;;;;6.60;4.55;;;;;;;;;;5029108;28;20025;-82
2023/09/04 02:17:52;;;;;;;6.90;4.60;;;;;;;;;;5019595;28;20060;-84
2023/09/04 02:20:18;;;;;;;5.57;4.60;;;;;;;;;;5013035;28;20124;-83
2023/09/04 02:22:44;;;;;;;5.15;4.10;;;;;;;;;;5024767;28;20140;-81
2023/09/04 02:25:10;;;;;;;6.18;4.90;;;;;;;;;;5008904;28;20103;-80
2023/09/04 02:27:36;;;;;;;5.43;4.40;;;;;;;;;;5019639;28;20013;-82
2023/09/04 02:30:07;;;;;;;5.80;4.20;;;;;;;;;;5022318;28;20033;-83
2023/09/04 02:32:33;;;;;;;6.85;4.60;;;;;;;;;;5007217;28;20692;-82
2023/09/04 02:34:59;;;;;;;6.68;4.90;;;;;;;;;;5019637;28;20046;-82
2023/09/04 02:37:25;;;;;;;7.05;4.35;;;;;;;;;;5022232;28;21388;-81
2023/09/04 02:39:51;;;;;;;10.77;5.40;;;;;;;;;;5022730;28;20032;-84
2023/09/04 02:42:17;;;;;;;7.60;4.50;;;;;;;;;;5022622;28;20022;-83
2023/09/04 02:44:43;;;;;;;6.93;5.03;;;;;;;;;;5023633;28;20030;-83
2023/09/04 02:47:09;;;;;;;5.63;4.35;;;;;;;;;;5017090;28;20064;-82
2023/09/04 02:49:35;;;;;;;8.15;4.55;;;;;;;;;;5005292;28;20444;-83
2023/09/04 02:52:01;;;;;;;6.93;4.60;;;;;;;;;;5006874;28;20022;-81
2023/09/04 02:54:27;;;;;;;7.28;5.20;;;;;;;;;;5029245;28;20037;-82
2023/09/04 02:56:53;;;;;;;9.80;5.00;;;16.90;99.90;;;;;;5018190;28;20040;-85
2023/09/04 02:59:19;;;;;;;8.05;5.05;;;;;;;;;;5030248;28;20913;-84
2023/09/04 03:01:45;;;;;;;7.13;4.28;;;;;;;;;;5032655;28;20164;-82
2023/09/04 03:04:11;;;;;;;6.75;4.93;;;;;;;;;;5019556;28;20302;-83
2023/09/04 03:06:38;;;;;;;6.18;4.72;;;;;;;;;;5036579;28;20017;-81
2023/09/04 03:09:04;;;;;;;6.95;4.47;;;;;;;;;;5023599;28;20041;-82
2023/09/04 03:11:31;;;;;;;5.95;4.40;;;;;;;;;;4992255;28;20022;-80
2023/09/04 03:13:57;;;;;;;22.95;5.43;;;;;;;;;;5004823;28;20053;-81
2023/09/04 03:16:23;;;;;;;7.03;4.82;;;;;;;;;;5026601;28;20030;-83
2023/09/04 03:18:49;;;;;;;7.45;4.70;;;;;;;;;;5024271;28;21647;-82
2023/09/04 03:21:15;;;;;;;7.45;4.95;;;18.60;99.90;;;;;;5025168;28;20025;-83
2023/09/04 03:23:41;;;;;;;5.88;4.68;;;;;;;;;;5006905;28;20138;-83
2023/09/04 03:26:07;;;;;;;6.22;4.88;;;;;;;;;;5002472;28;20030;-82
2023/09/04 03:28:33;;;;;;;6.45;5.22;;;;;;;;;;5023239;28;20100;-83
2023/09/04 03:30:59;;;;;;;6.18;4.57;;;;;;;;;;5022858;28;20033;-81
2023/09/04 03:33:25;;;;;;;7.35;5.20;;;;;;;;;;5005008;28;20150;-83
2023/09/04 03:35:51;;;;;;;5.82;4.60;;;;;;;;;;5026308;28;20092;-82
2023/09/04 03:38:18;;;;;;;6.05;4.57;;;;;;;;;;5023692;28;21035;-82
2023/09/04 03:40:44;;;;;;;7.28;4.88;;;;;;;;;;5020660;28;20063;-82
2023/09/04 03:43:10;;;;;;;6.47;4.90;;;;;;;;;;5001795;28;20050;-84
2023/09/04 03:45:36;;;;;;;7.28;5.18;;;;;;;;;;5021104;28;20029;-82
2023/09/04 03:48:02;;;;;;;7.20;4.70;;;;;;;;;;5018964;28;20056;-83
2023/09/04 03:50:28;;;;;;;8.45;4.93;;;;;;;;;;5007047;28;20125;-80
2023/09/04 03:52:54;;;;;;;6.03;4.47;;;;;;;;;;5026018;28;20068;-79
2023/09/04 03:55:20;;;;;;;6.38;4.38;;;;;;;;;;5027848;28;20096;-84
2023/09/04 03:57:48;;;;;;;8.18;4.82;;;;;;;;;;5017855;28;20085;-82
2023/09/04 04:00:16;;;;;;;7.75;4.53;;;;;;;;;;5012311;28;20438;-86
2023/09/04 04:02:42;;;;;;;6.55;4.72;;;;;;;;;;5028582;28;20026;-81
2023/09/04 04:05:11;;;;;;;5.68;4.70;;;16.80;99.90;;;;;;5029098;28;20044;-80
2023/09/04 04:07:38;;;;;;;5.57;4.20;;;;;;;;;;5014045;28;20029;-81
2023/09/04 04:10:04;;;;;;;6.13;4.88;;;;;;;;;;5009951;28;20029;-80
2023/09/04 04:12:31;;;;;;;5.38;4.50;;;;;;;;;;5016432;28;20133;-81
2023/09/04 04:14:57;;;;;;;8.88;4.70;;;;;;;;;;5023801;28;20061;-86
2023/09/04 04:17:24;;;;;;;5.90;4.60;;;;;;;;;;5017944;28;20025;-80
2023/09/04 04:19:53;;;;;;;6.68;4.85;;;;;;;;;;5020457;28;20045;-82
2023/09/04 04:22:20;;;;;;;7.68;4.57;;;;;;;;;;5012159;28;20082;-81
2023/09/04 04:24:46;;;;;;;5.40;4.65;;;;;;;;;;5030445;28;20025;-80
2023/09/04 04:27:12;;;;;;;5.70;4.68;;;;;;;;;;5010626;28;20048;-82
2023/09/04 04:29:39;;;;;;;7.40;5.10;;;;;;;;;;5011846;28;20183;-80
2023/09/04 04:32:05;;;;;;;6.80;4.85;;;16.70;99.90;;;;;;5026300;28;20041;-85
2023/09/04 04:34:31;;;;;;;6.95;5.05;;;;;;;;;;5012848;28;20116;-83
2023/09/04 04:36:57;;;;;;;7.32;5.05;;;;;;;;;;5013367;28;20113;-83
2023/09/04 04:39:23;;;;;;;6.70;4.30;;;;;;;;;;5031284;28;20033;-86
2023/09/04 04:41:49;;;;;;;7.18;5.20;;;;;;;;;;5026351;28;20022;-81
2023/09/04 04:44:15;;;;;;;6.90;5.05;;;;;;;;;;5001585;28;20053;-85
2023/09/04 04:46:41;;;;;;;7.40;4.50;;;;;;;;;;5010383;28;20094;-84
2023/09/04 04:49:08;;;;;;;6.28;4.75;;;;;;;;;;5016489;28;20037;-83
2023/09/04 04:51:34;;;;;;;7.20;5.03;;;;;;;;;;5030078;28;20025;-81
2023/09/04 04:54:00;;;;;;;5.60;4.00;;;;;;;;;;5024576;28;20038;-81
2023/09/04 04:56:26;;;;;;;8.60;4.75;;;;;;;;;;5025954;28;20102;-83
2023/09/04 04:58:51;;;;;;;4.97;4.22;;;;;;;;;;5024188;28;20029;-83
2023/09/04 05:01:17;;;;;;;6.95;4.70;;;;;;;;;;5016474;28;20033;-85
2023/09/04 05:03:46;;;;;;;7.13;5.10;;;16.50;99.90;;;;;;5015991;28;20495;-82
2023/09/04 05:06:12;;;;;;;7.35;4.57;;;;;;;;;;5004177;28;20032;-87
2023/09/04 05:08:38;;;;;;;6.68;4.90;;;;;;;;;;5011138;28;20030;-82
2023/09/04 05:11:05;;;;;;;8.40;4.85;;;16.70;99.90;;;;;;5005667;28;20029;-82
2023/09/04 05:13:31;;;;;;;7.45;4.68;;;;;;;;;;5010141;28;20033;-83
2023/09/04 05:16:03;;;;;;;6.90;4.38;;;;;;;;;;5012521;28;20120;-82
2023/09/04 05:18:29;;;;;;;5.78;4.65;;;;;;;;;;5022804;28;20029;-82
2023/09/04 05:20:55;;;;;;;6.07;4.63;;;;;;;;;;5026225;28;20033;-83
2023/09/04 05:23:22;;;;;;;6.65;4.85;;;;;;;;;;5030783;28;20022;-80
2023/09/04 05:25:51;;;;;;;7.68;4.82;;;16.60;99.90;;;;;;5012091;28;20025;-83
2023/09/04 05:28:17;;;;;;;5.27;4.47;;;;;;;;;;5011473;28;20014;-80
2023/09/04 05:30:43;;;;;;;6.72;5.25;;;;;;;;;;5028711;28;20365;-81
2023/09/04 05:33:09;;;;;;;6.70;5.05;;;;;;;;;;5020875;28;20090;-84
2023/09/04 05:35:35;;;;;;;8.18;4.32;;;;;;;;;;5023346;28;20021;-83
2023/09/04 05:38:01;;;;;;;6.82;5.03;;;16.60;99.90;;;;;;5027115;28;20030;-83
2023/09/04 05:40:27;;;;;;;5.72;4.60;;;;;;;;;;5035171;28;20465;-84
2023/09/04 05:42:53;;;;;;;7.20;5.05;;;;;;;;;;5013043;28;20057;-82
2023/09/04 05:45:19;;;;;;;8.13;4.80;;;;;;;;;;5013076;28;20241;-82
2023/09/04 05:47:46;;;;;;;6.47;5.07;;;16.60;99.90;;;;;;5030278;28;20423;-79
2023/09/04 05:50:12;;;;;;;6.63;4.85;;;;;;;;;;5015689;28;20034;-81
2023/09/04 05:52:38;;;;;;;6.90;5.10;;;;;;;;;;5031745;28;20044;-83
2023/09/04 05:55:04;;;;;;;6.30;5.05;;;16.70;99.90;;;;;;5012118;28;20033;-81
2023/09/04 05:57:30;;;;;;;7.03;5.15;;;;;;;;;;4997158;28;20037;-81
2023/09/04 06:00:00;;;;;;;6.80;4.80;;;;;;;;;;5009278;28;20029;-81
2023/09/04 06:02:27;;;;;;;7.45;4.78;;;16.80;99.90;;;;;;5011075;28;20107;-82
2023/09/04 06:04:53;;;;;;;7.00;4.88;;;;;;;;;;5008372;28;20483;-82
2023/09/04 06:07:19;;;;;;;7.40;4.50;;;;;;;;;;5007281;28;20026;-82
2023/09/04 06:09:45;;;;;;;7.72;4.65;;;;;;;;;;5015167;28;20036;-84
2023/09/04 06:12:11;;;;;;;8.13;5.00;;;16.90;99.90;;;;;;5015579;28;20093;-82
2023/09/04 06:14:38;;;;;;;5.90;4.60;;;17.10;99.90;;;;;;5016253;28;20104;-82
2023/09/04 06:17:04;;;;;;;7.53;4.55;;;17.00;99.90;;;;;;5030688;28;20117;-82
2023/09/04 06:19:30;;;;;;;7.28;4.95;;;;;;;;;;5017785;28;20037;-84
2023/09/04 06:21:56;;;;;;;5.68;4.47;;;;;;;;;;5023532;28;20030;-86
2023/09/04 06:24:22;;;;;;;6.28;4.78;;;;;;;;;;5031775;28;20068;-83
2023/09/04 06:26:48;;;;;;;6.53;4.97;;;17.20;99.90;;;;;;5017131;28;20033;-85
2023/09/04 06:29:15;;;;;;;7.43;4.55;;;;;;;;;;5020112;28;20030;-83
2023/09/04 06:31:41;;;;;;;7.70;4.80;;;;;;;;;;5021258;28;20034;-83
2023/09/04 06:34:07;;;;;;;6.30;4.47;;;;;;;;;;5029215;28;20034;-84
2023/09/04 06:36:33;;;;;;;5.47;4.25;;;;;;;;;;5017715;28;20030;-86
2023/09/04 06:38:59;;;;;;;5.68;4.47;;;;;;;;;;5018532;28;20033;-84
2023/09/04 06:41:25;;;;;;;10.20;4.35;;;;;;;;;;5009743;28;20022;-84
2023/09/04 06:43:51;;;;;;;8.35;4.28;;;17.70;99.90;;;;;;5029118;28;20025;-83
2023/09/04 06:46:17;;;;;;;5.30;3.92;;;17.70;99.90;;;;;;5030799;28;20017;-84
2023/09/04 06:48:43;;;;;;;5.63;3.92;;;;;;;;;;5011884;28;20076;-83
2023/09/04 06:51:09;;;;;;;5.70;4.07;;;;;;;;;;5018191;28;20026;-89
2023/09/04 06:53:35;;;;;;;7.18;4.13;;;;;;;;;;5026941;28;20030;-87
2023/09/04 06:56:01;;;;;;;6.43;4.32;;;;;;;;;;5024705;28;20045;-88
2023/09/04 06:58:28;;;;;;;6.00;3.85;;;;;;;;;;5028912;28;20105;-81
2023/09/04 07:00:55;;;;;;;10.32;4.53;;;;;;;;;;5021310;28;20044;-82
2023/09/04 07:03:21;;;;;;;8.10;4.10;;;18.20;99.90;;;;;;5011906;28;20030;-84
2023/09/04 07:05:48;;;;;;;4.90;3.80;;;;;;;;;;5025823;28;20030;-82
2023/09/04 07:08:13;;;;;;;5.20;3.78;;;18.40;99.90;;;;;;5024630;28;20028;-87
2023/09/04 07:10:39;;;;;;;5.90;4.03;;;;;;;;;;5028776;28;20025;-83
2023/09/04 07:13:05;;;;;;;6.03;4.20;;;;;;;;;;5025520;28;20653;-86
2023/09/04 07:15:31;;;;;;;8.98;4.47;;;;;;;;;;5008990;28;20112;-81
2023/09/04 07:18:00;;;;;;;4.55;3.65;;;18.50;99.90;;;;;;5007714;28;20087;-81
2023/09/04 07:20:29;;;;;;;6.88;3.95;;;18.60;99.90;;;;;;5011468;28;20057;-84
2023/09/04 07:22:55;;;;;;;5.65;3.70;;;18.50;99.90;;;;;;5012483;28;22100;-81
2023/09/04 07:25:21;;;;;;;6.70;3.95;;;18.60;99.90;;;;;;5014261;28;20056;-82
2023/09/04 07:27:47;;;;;;;5.40;3.70;;;;;;;;;;5031597;28;20029;-84
2023/09/04 07:30:13;;;;;;;5.63;3.70;;;;;;;;;;5013203;28;20064;-83
2023/09/04 07:32:40;;;;;;;6.22;3.90;;;;;;;;;;5019936;28;20132;-84
2023/09/04 07:35:06;;;;;;;8.70;3.92;;;19.10;99.90;;;;;;5031459;28;20069;-84
2023/09/04 07:37:32;;;;;;;6.55;3.55;;;;;;;;;;5028980;28;20494;-84
2023/09/04 07:39:59;;;;;;;4.70;3.72;;;;;;;;;;5012015;28;20044;-82
2023/09/04 07:42:25;;;;;;;6.20;3.90;;;;;;;;;;5003052;28;20029;-84
2023/09/04 07:44:51;;;;;;;5.57;3.80;;;;;;;;;;5005914;28;20113;-84
2023/09/04 07:47:17;;;;;;;4.55;3.30;;;;;;;;;;5012233;28;20026;-82
2023/09/04 07:49:43;;;;;;;5.55;3.33;;;;;;;;;;5014115;28;20034;-84
2023/09/04 07:52:09;;;;;;;7.18;3.63;;;;;;;;;;5010538;28;20034;-86
2023/09/04 07:54:35;;;;;;;4.65;3.42;;;;;;;;;;5030561;28;20055;-83
2023/09/04 07:57:02;;;;;;;7.00;3.58;;;;;;;;;;5014646;28;20137;-81
2023/09/04 07:59:28;;;;;;;5.15;3.20;;;;;;;;;;4999286;28;20037;-81
2023/09/04 08:01:54;;;;;;;8.63;5.55;;;;;;;;;;5028500;28;20526;-81
2023/09/04 08:04:20;;;;;;;5.68;3.53;;;;;;;;;;5027954;28;20045;-83
2023/09/04 08:06:47;;;;;;;5.03;3.58;;;;;;;;;;5013477;28;20048;-83
2023/09/04 08:09:13;;;;;;;5.82;3.30;;;;;;;;;;5016412;28;20064;-86
2023/09/04 08:11:39;;;;;;;4.93;3.85;;;20.50;99.90;;;;;;5009737;28;20285;-81
2023/09/04 08:14:05;;;;;;;4.85;3.17;;;;;;;;;;5013403;28;20108;-85
2023/09/04 08:16:46;;;;;;;4.82;3.60;;;20.80;99.90;;;;;;5023233;28;20041;-82
2023/09/04 08:21:48;;;;;;;6.40;3.90;;;;;;;;;;5221951;22;20061;-85
2023/09/04 08:24:14;;;;;;;4.20;3.38;;;;;;;;;;4997134;28;20046;-85
2023/09/04 08:26:40;;;;;;;6.05;3.67;;;;;;;;;;5004772;28;20050;-83
2023/09/04 08:29:06;;;;;;;7.05;3.65;;;;;;;;;;5021579;28;20113;-86
2023/09/04 08:31:32;;;;;;;7.10;3.10;;;21.50;99.90;;;;;;5021574;28;20044;-85
2023/09/04 08:34:04;;;;;;;5.72;3.63;;;;;;;;;;5025939;28;20042;-82
2023/09/04 08:36:30;;;;;;;4.50;3.30;;;;;;;;;;5010253;28;20038;-87
2023/09/04 08:38:56;;;;;;;4.45;3.35;;;21.60;99.90;;;;;;5005332;28;20031;-87
2023/09/04 08:41:23;;;;;;;4.43;3.10;;;21.70;99.90;;;;;;5006052;28;20006;-87
2023/09/04 08:43:49;;;;;;;5.45;3.33;;;;;;;;;;5008359;28;20046;-86
2023/09/04 08:46:16;;;;;;;4.03;3.28;;;22.00;99.90;;;;;;5010715;28;20042;-81
2023/09/04 08:48:43;;;;;;;7.35;3.17;;;22.10;99.90;;;;;;5003369;28;20030;-81
2023/09/04 08:51:10;;;;;;;4.05;3.17;;;22.30;99.90;;;;;;4996745;28;20025;-85
2023/09/04 08:53:36;;;;;;;4.72;3.50;;;22.40;99.90;;;;;;4996535;28;20120;-83
2023/09/04 08:56:03;;;;;;;5.20;3.08;;;22.30;99.90;;;;;;4994823;28;20030;-83
2023/09/04 08:58:29;;;;;;;6.72;3.20;;;22.50;99.90;;;;;;5007811;28;20085;-82
2023/09/04 09:00:55;;;;;;;4.43;3.15;;;;;;;;;;5013255;28;20054;-83
2023/09/04 09:03:22;;;;;;;5.13;3.05;;;22.70;99.90;;;;;;4995933;28;20057;-83
2023/09/04 09:05:48;;;;;;;5.78;3.22;;;22.80;99.90;;;;;;4997687;28;20089;-83
2023/09/04 09:08:16;;;;;;;7.72;3.35;;;23.00;99.90;;;;;;4992612;28;20491;-82
2023/09/04 09:10:45;;;;;;;4.05;3.13;;;23.10;99.90;;;;;;4994770;28;20029;-83
2023/09/04 09:13:14;;;;;;;4.78;3.28;;;23.20;99.90;;;;;;5000781;28;20063;-84
2023/09/04 09:15:42;;;;;;;4.13;2.80;;;23.20;99.90;;;;;;5007038;28;20006;-84
2023/09/04 09:18:08;;;;;;;5.00;3.25;;;;;;;;;;5008792;28;20057;-85
2023/09/04 09:20:44;;;;;;;4.28;3.00;;;23.40;99.90;;;;;;5020889;28;20037;-86
2023/09/04 09:23:10;;;;;;;4.57;3.33;;;;;;;;;;5018031;28;20026;-82
2023/09/04 09:25:38;;;;;;;5.20;2.80;;;;;;;;;;5018864;28;20046;-81
2023/09/04 09:28:07;;;;;;;5.28;3.50;;;23.70;99.90;;;;;;5008006;28;21393;-86
2023/09/04 09:30:38;;;;;;;3.95;2.47;;;24.00;99.90;;;;;;5010528;28;20042;-81
2023/09/04 09:33:09;;;;;;;3.75;2.53;;;24.10;99.90;;;;;;5005764;28;20047;-84
2023/09/04 09:35:35;;;;;;;3.85;2.47;;;;;;;;;;5004388;28;20007;-82
2023/09/04 09:38:01;;;;;;;6.20;2.58;;;;;;;;;;5008671;28;20097;-83
2023/09/04 09:40:27;;;;;;;4.18;2.40;;;;;;;;;;4993871;28;20030;-84
2023/09/04 09:42:54;;;;;;;4.43;2.70;;;;;;;;;;5002306;28;20076;-85
2023/09/04 09:45:20;;;;;;;2.75;2.33;;;;;;;;;;5008154;28;21426;-82
2023/09/04 09:47:46;;;;;;;3.55;2.38;;;;;;;;;;4994669;28;20029;-82
2023/09/04 09:50:14;;;;;;;3.20;2.47;;;;;;;;;;4995327;28;20045;-82
2023/09/04 09:52:58;;;;;;;5.10;2.88;;;24.40;99.90;;;;;;4999259;28;20027;-86
2023/09/04 09:55:26;;;;;;;4.47;2.42;;;24.60;99.90;;;;;;5005442;28;20042;-84
2023/09/04 09:57:53;;;;;;;3.50;2.45;;;24.70;99.90;;;;;;5021495;28;20042;-84
2023/09/04 10:00:19;;;;;;;2.97;2.42;;;;;;;;;;5001097;28;20039;-83
2023/09/04 10:02:47;;;;;;;4.05;2.33;;;;;;;;;;4995663;28;20033;-82
2023/09/04 10:05:12;;;;;;;4.10;2.33;;;24.90;99.90;;;;;;4993326;28;20026;-83
2023/09/04 10:07:39;;;;;;;5.13;2.67;;;24.90;99.50;;;;;;4992674;28;20033;-83
2023/09/04 10:10:06;;;;;;;3.25;2.28;;;24.90;98.80;;;;;;4997794;28;20030;-83
2023/09/04 10:12:45;;;;;;;5.45;2.38;;;25.00;99.00;;;;;;4998523;28;20077;-85
2023/09/04 10:15:13;;;;;;;3.70;2.75;;;25.20;99.00;;;;;;5013144;28;20102;-83
2023/09/04 10:18:06;;;;;;;2.55;1.92;;;25.40;98.90;;;;;;4991228;28;20033;-83
2023/09/04 10:20:34;;;;;;;3.30;2.38;;;;;;;;;;4990504;28;20043;-84
2023/09/04 10:23:08;;;;;;;4.05;2.25;;;25.60;98.30;;;;;;4992144;28;20089;-84
2023/09/04 10:26:04;;;;;;;3.08;2.20;;;25.60;98.40;;;;;;5010935;28;20109;-84
2023/09/04 10:28:45;;;;;;;3.03;2.38;;;25.70;98.10;;;;;;4997677;28;20066;-83
2023/09/04 10:31:12;;;;;;;3.28;2.47;;;25.90;98.00;;;;;;5001227;28;20023;-84
2023/09/04 10:33:40;;;;;;;5.40;2.60;;;;;;;;;;5001373;28;20041;-84
2023/09/04 10:36:06;;;;;;;2.60;2.10;;;;;;;;;;5013362;28;20041;-82
2023/09/04 10:38:33;;;;;;;5.03;2.10;;;26.20;97.20;;;;;;5003245;28;20133;-84
2023/09/04 10:41:00;;;;;;;3.83;2.47;;;;;;;;;;4999978;28;20055;-83
2023/09/04 10:43:38;;;;;;;3.58;2.40;;;;;;;;;;4999918;28;20022;-81
2023/09/04 10:46:05;;;;;;;3.35;2.25;;;;;;;;;;5017391;28;20038;-84
2023/09/04 10:48:44;;;;;;;4.63;2.13;;;;;;;;;;5000112;28;20030;-83
2023/09/04 10:51:31;;;;;;;3.20;2.30;;;26.70;95.70;;;;;;5009604;28;20141;-84
2023/09/04 10:53:59;;;;;;;3.40;2.25;;;26.70;95.40;;;;;;4998218;28;20034;-83
2023/09/04 10:56:25;;;;;;;4.25;2.10;;;;;;;;;;5002156;28;20022;-83
2023/09/04 10:59:04;;;;;;;3.90;2.30;;;26.60;95.50;;;;;;5006263;28;20106;-85
2023/09/04 11:01:37;;;;;;;3.57;2.23;;;26.70;94.50;;;;;;5000131;28;20038;-83
2023/09/04 11:04:05;;;;;;;3.25;2.28;;;26.70;94.70;;;;;;4999882;28;20038;-82
2023/09/04 11:06:40;;;;;;;7.10;2.40;;;26.80;93.90;;;;;;5008728;28;20060;-82
2023/09/04 11:09:06;;;;;;;3.35;2.30;;;;;;;;;;5007845;28;20023;-85
2023/09/04 11:11:33;;;;;;;3.15;2.05;;;26.70;93.40;;;;;;5006990;28;20054;-83
2023/09/04 11:14:01;;;;;;;4.57;2.03;;;26.70;93.20;;;;;;4991596;28;20499;-86
2023/09/04 11:16:28;;;;;;;3.03;2.17;;;;;;;;;;4995446;28;20033;-83
2023/09/04 11:19:01;;;;;;;2.55;1.80;;;26.70;93.30;;;;;;5023050;28;20121;-85
2023/09/04 11:21:34;;;;;;;3.78;2.15;;;26.70;92.30;;;;;;5011851;28;20126;-87
2023/09/04 11:24:00;;;;;;;3.20;2.13;;;;;;;;;;5003627;28;20022;-84
2023/09/04 11:26:26;;;;;;;3.03;2.20;;;26.90;91.50;;;;;;4989796;28;20029;-83
2023/09/04 11:28:52;;;;;;;7.05;2.28;;;;;;;;;;4988888;28;20408;-84
2023/09/04 11:31:18;;;;;;;3.20;2.20;;;;;;;;;;5010328;28;20023;-83
2023/09/04 11:33:48;;;;;;;3.08;2.20;;;27.10;90.60;;;;;;4998632;28;20040;-84
2023/09/04 11:36:14;;;;;;;3.55;1.95;;;;;;;;;;4996419;28;20032;-85
2023/09/04 11:40:43;;;;;;;3.38;2.10;;;;;;;;;;5091095;27;20544;-77
2023/09/04 11:43:09;;;;;;;4.35;2.30;;;27.50;90.40;;;;;;5097168;27;20033;-77
2023/09/04 11:45:42;;;;;;;4.20;2.25;;;27.60;90.00;;;;;;5089059;28;20059;-77
2023/09/04 11:48:08;;;;;;;3.15;2.17;;;;;;;;;;5093367;28;20031;-77
2023/09/04 11:50:34;;;;;;;4.07;2.20;;;;;;;;;;5087777;28;20025;-77
2023/09/04 11:53:00;;;;;;;2.85;2.00;;;27.50;86.70;;;;;;5081400;27;20115;-77
2023/09/04 11:55:26;;;;;;;2.60;1.90;;;;;;;;;;5091651;28;20028;-76
2023/09/04 11:57:54;;;;;;;2.58;1.80;;;27.50;86.50;;;;;;5090577;22;20032;-77
2023/09/04 12:00:20;;;;;;;4.18;2.22;;;;;;;;;;5060455;28;20117;-77
2023/09/04 12:02:52;;;;;;;2.40;1.80;;;27.70;85.90;;;;;;5076722;28;20074;-76
2023/09/04 12:05:19;;;;;;;2.83;1.83;;;27.70;83.50;;;;;;5061994;28;20032;-77
2023/09/04 12:07:45;;;;;;;4.07;2.00;;;;;;;;;;5082411;28;20498;-76
2023/09/04 12:10:12;;;;;;;5.13;2.05;;;;;;;;;;5080846;28;20028;-77
2023/09/04 12:12:38;;;;;;;7.57;4.05;;;;;;;;;;5082462;28;20111;-77
2023/09/04 12:15:05;;;;;;;2.80;1.77;;;28.00;82.00;;;;;;5068810;28;20357;-77
2023/09/04 12:17:31;;;;;;;3.30;1.95;;;28.10;82.30;;;;;;5068937;28;20034;-76
2023/09/04 12:19:57;;;;;;;3.90;2.13;;;28.10;80.70;;;;;;5069357;28;20702;-77
2023/09/04 12:22:23;;;;;;;3.47;2.30;;;28.10;80.20;;;;;;5091639;28;20035;-77
2023/09/04 12:24:58;;;;;;;3.10;2.00;;;28.10;79.60;;;;;;5079414;28;22034;-77
2023/09/04 12:27:25;;;;;;;3.08;2.10;;;;;;;;;;5094119;28;20028;-77
2023/09/04 12:29:51;;;;;;;3.13;1.98;;;27.90;79.70;;;;;;5083581;28;20030;-77
2023/09/04 12:32:20;;;;;;;3.20;2.15;;;27.90;79.50;;;;;;5076122;28;20035;-77
2023/09/04 12:34:48;;;;;;;3.15;2.10;;;28.00;79.70;;;;;;5079574;28;20020;-78
2023/09/04 12:37:14;;;;;;;2.67;2.10;;;28.00;77.60;;;;;;5091521;28;20032;-77
2023/09/04 12:39:40;;;;;;;3.20;2.28;;;27.90;78.80;;;;;;5084675;28;20059;-76
2023/09/04 12:42:09;;;;;;;6.97;1.98;;;;;;;;;;5102486;28;20024;-79
2023/09/04 12:44:36;;;;;;;3.97;2.05;;;;;;;;;;5090953;28;20364;-78
2023/09/04 12:47:08;;;;;;;2.80;2.15;;;;;;;;;;5107355;28;20020;-78
2023/09/04 12:49:34;;;;;;;4.75;2.10;;;;;;;;;;5102390;28;20462;-78
2023/09/04 12:52:00;;;;;;;3.95;1.90;;;28.30;77.60;;;;;;5065779;28;20019;-78
2023/09/04 12:54:25;;;;;;;3.33;2.10;;;28.40;76.90;;;;;;5063220;28;20464;-78
2023/09/04 12:56:51;;;;;;;2.58;1.95;;;28.30;76.90;;;;;;5082579;28;20416;-78
2023/09/04 12:59:17;;;;;;;4.70;2.20;;;;;;;;;;5071128;28;20028;-78
2023/09/04 13:01:50;;;;;;;4.38;2.20;;;28.60;76.70;;;;;;5067378;28;20696;-78
2023/09/04 13:04:20;;;;;;;3.22;2.20;;;;;;;;;;5083403;28;20153;-78
2023/09/04 13:06:46;;;;;;;3.15;2.00;;;;;;;;;;5065820;28;20038;-78
2023/09/04 13:09:11;;;;;;;3.90;2.10;;;28.60;76.50;;;;;;5070430;28;20029;-78
2023/09/04 13:11:38;;;;;;;3.45;2.15;;;28.50;76.60;;;;;;5063646;28;20027;-78
2023/09/04 13:14:03;;;;;;;3.85;2.60;;;28.70;76.80;;;;;;5070259;28;20400;-77
2023/09/04 13:16:30;;;;;;;3.60;2.47;;;;;;;;;;5067521;28;20016;-78
2023/09/04 13:18:56;;;;;;;4.75;2.40;;;;;;;;;;5099088;23;20047;-78
2023/09/04 13:21:23;;;;;;;3.15;2.08;;;28.90;76.80;;;;;;5093166;28;20662;-77
2023/09/04 13:24:30;;;;;;;3.30;2.10;;;28.80;76.20;;;;;;5083218;28;20024;-77
2023/09/04 13:27:11;;;;;;;3.35;2.17;;;28.80;76.20;;;;;;5080323;28;20799;-79
2023/09/04 13:30:05;;;;;;;3.50;2.17;;;28.70;75.20;;;;;;5064629;28;20301;-77
2023/09/04 13:32:43;;;;;;;2.63;1.83;;;;;;;;;;5082969;28;20020;-77
2023/09/04 13:35:10;;;;;;;2.83;2.03;;;;;;;;;;5079849;28;20051;-77
2023/09/04 13:37:36;;;;;;;4.22;1.90;;;;;;;;;;5065071;28;20354;-78
2023/09/04 13:40:03;;;;;;;4.07;2.28;;;28.80;77.80;;;;;;5085213;28;20020;-79
2023/09/04 13:42:32;;;;;;;2.50;1.90;;;28.90;78.30;;;;;;5095313;28;20047;-78
2023/09/04 13:44:59;;;;;;;4.40;2.10;;;29.00;77.30;;;;;;5084059;28;20029;-78
2023/09/04 13:47:26;;;;;;;2.80;2.22;;;28.90;77.60;;;;;;5061917;28;20093;-78
2023/09/04 13:49:54;;;;;;;3.80;2.05;;;28.90;77.00;;;;;;5083495;28;20024;-78
2023/09/04 13:52:27;;;;;;;3.42;2.33;;;29.00;77.00;;;;;;5079634;28;20045;-78
2023/09/04 13:54:55;;;;;;;3.47;2.00;;;29.00;76.10;;;;;;5060955;28;20058;-78
2023/09/04 13:57:22;;;;;;;3.60;2.20;;;29.10;75.30;;;;;;5077493;28;20078;-77
2023/09/04 13:59:48;;;;;;;3.58;2.28;;;29.10;75.40;;;;;;5063761;28;20021;-77
2023/09/04 14:02:14;;;;;;;5.50;2.20;;;29.00;74.60;;;;;;5055266;28;20035;-79